createdAt,value
2018-12-09T00:01:13.668Z,80.18
2018-12-09T00:03:46.525Z,80.57
2018-12-09T00:06:17.406Z,80.74
2018-12-09T00:08:48.217Z,81.36
2018-12-09T00:11:16.488Z,78.36
2018-12-09T00:13:44.845Z,78.48
2018-12-09T00:16:13.482Z,77.68
2018-12-09T00:18:41.775Z,77.73
2018-12-09T00:21:10.325Z,76.77
2018-12-09T00:23:39.336Z,76.23
2018-12-09T00:26:09.702Z,75.74
2018-12-09T00:28:38.183Z,75.25
2018-12-09T00:31:06.464Z,75.54
2018-12-09T00:33:35.023Z,75.98
2018-12-09T00:36:03.308Z,75.91
2018-12-09T00:38:31.623Z,74.73
2018-12-09T00:40:59.927Z,74.92
2018-12-09T00:43:28.378Z,74.50
2018-12-09T00:45:56.819Z,75.04
2018-12-09T00:48:25.478Z,74.39
2018-12-09T00:50:54.104Z,74.95
2018-12-09T00:53:22.401Z,73.58
2018-12-09T00:55:50.579Z,74.40
2018-12-09T00:58:19.122Z,73.85
2018-12-09T01:00:47.746Z,72.91
2018-12-09T01:03:16.316Z,72.33
2018-12-09T01:05:45.010Z,71.06
2018-12-09T01:08:13.363Z,71.27
2018-12-09T01:10:41.596Z,70.09
2018-12-09T01:13:10.246Z,69.22
2018-12-09T01:15:38.530Z,67.97
2018-12-09T01:18:07.291Z,68.80
2018-12-09T01:20:35.529Z,68.66
2018-12-09T01:23:03.810Z,68.54
2018-12-09T01:25:32.452Z,68.35
2018-12-09T01:28:00.804Z,69.49
2018-12-09T01:30:29.351Z,69.25
2018-12-09T01:32:58.031Z,69.27
2018-12-09T01:35:26.583Z,69.77
2018-12-09T01:37:55.485Z,69.82
2018-12-09T01:40:24.198Z,69.39
2018-12-09T01:42:52.889Z,68.86
2018-12-09T01:45:21.379Z,69.17
2018-12-09T01:47:49.706Z,68.53
2018-12-09T01:50:17.929Z,67.29
2018-12-09T01:52:50.965Z,66.70
2018-12-09T01:55:19.741Z,65.51
2018-12-09T01:57:47.989Z,64.28
2018-12-09T02:00:16.345Z,64.11
2018-12-09T02:02:44.773Z,64.15
2018-12-09T02:05:13.097Z,62.93
2018-12-09T02:07:42.298Z,63.82
2018-12-09T02:10:10.977Z,65.47
2018-12-09T02:12:39.541Z,65.79
2018-12-09T02:15:07.885Z,66.70
2018-12-09T02:17:36.175Z,67.09
2018-12-09T02:20:05.334Z,67.17
2018-12-09T02:22:33.624Z,68.90
2018-12-09T02:25:01.918Z,70.33
2018-12-09T02:27:30.316Z,71.39
2018-12-09T02:29:58.503Z,72.86
2018-12-09T02:32:26.838Z,75.82
2018-12-09T02:34:55.615Z,76.26
2018-12-09T02:37:23.984Z,78.55
2018-12-09T02:39:52.471Z,79.37
2018-12-09T02:42:20.773Z,79.67
2018-12-09T02:44:49.087Z,79.13
2018-12-09T02:47:17.702Z,79.82
2018-12-09T02:49:45.989Z,79.53
2018-12-09T02:52:14.848Z,79.09
2018-12-09T02:54:43.141Z,79.75
2018-12-09T02:57:11.453Z,79.56
2018-12-09T02:59:39.860Z,80.23
2018-12-09T03:02:08.510Z,80.16
2018-12-09T03:04:39.368Z,81.63
2018-12-09T03:07:07.747Z,82.36
2018-12-09T03:09:35.964Z,83.68
2018-12-09T03:12:05.041Z,79.91
2018-12-09T03:14:33.555Z,80.36
2018-12-09T03:17:01.825Z,81.14
2018-12-09T03:19:30.511Z,80.44
2018-12-09T03:21:59.598Z,80.36
2018-12-09T03:24:28.623Z,80.57
2018-12-09T03:26:57.121Z,76.47
2018-12-09T03:29:25.648Z,74.54
2018-12-09T03:31:55.309Z,75.00
2018-12-09T03:34:23.717Z,75.62
2018-12-09T03:36:52.393Z,74.04
2018-12-09T03:39:21.034Z,73.33
2018-12-09T03:41:49.593Z,73.25
2018-12-09T03:44:18.249Z,73.42
2018-12-09T03:46:47.301Z,72.33
2018-12-09T03:49:15.819Z,72.13
2018-12-09T03:51:44.902Z,72.76
2018-12-09T03:54:16.726Z,72.85
2018-12-09T03:56:45.444Z,73.40
2018-12-09T03:59:13.926Z,73.10
2018-12-09T04:01:42.690Z,72.70
2018-12-09T04:04:11.231Z,72.98
2018-12-09T04:06:39.557Z,74.10
2018-12-09T04:09:08.029Z,73.42
2018-12-09T04:11:36.435Z,72.88
2018-12-09T04:14:04.713Z,72.54
2018-12-09T04:16:33.300Z,72.26
2018-12-09T04:19:01.922Z,72.70
2018-12-09T04:21:30.814Z,73.58
2018-12-09T04:23:59.141Z,74.22
2018-12-09T04:26:27.396Z,74.06
2018-12-09T04:28:57.175Z,73.33
2018-12-09T04:31:25.816Z,74.06
2018-12-09T04:33:54.240Z,74.92
2018-12-09T04:36:22.660Z,74.95
2018-12-09T04:38:51.518Z,75.80
2018-12-09T04:41:20.195Z,75.77
2018-12-09T04:43:49.802Z,76.85
2018-12-09T04:46:18.740Z,76.86
2018-12-09T04:48:47.426Z,77.00
2018-12-09T04:51:16.628Z,77.70
2018-12-09T04:53:45.184Z,77.96
2018-12-09T04:56:13.494Z,78.13
2018-12-09T04:58:56.526Z,78.12
2018-12-09T05:01:25.065Z,78.03
2018-12-09T05:03:54.007Z,78.37
2018-12-09T05:06:22.255Z,79.02
2018-12-09T05:08:51.845Z,79.79
2018-12-09T05:11:20.302Z,79.79
2018-12-09T05:13:48.889Z,80.05
2018-12-09T05:16:18.488Z,78.20
2018-12-09T05:18:46.824Z,78.79
2018-12-09T05:21:15.450Z,79.33
2018-12-09T05:23:43.785Z,79.31
2018-12-09T05:26:12.165Z,79.98
2018-12-09T05:28:41.002Z,78.49
2018-12-09T05:31:10.088Z,78.19
2018-12-09T05:33:38.756Z,77.25
2018-12-09T05:36:07.094Z,77.07
2018-12-09T05:38:35.666Z,74.38
2018-12-09T05:41:04.096Z,74.08
2018-12-09T05:43:32.436Z,73.02
2018-12-09T05:46:00.706Z,72.16
2018-12-09T05:48:29.303Z,70.87
2018-12-09T05:50:57.694Z,70.92
2018-12-09T05:53:26.628Z,69.21
2018-12-09T05:55:55.936Z,69.88
2018-12-09T05:58:29.293Z,68.92
2018-12-09T06:00:57.574Z,69.36
2018-12-09T06:03:25.980Z,69.59
2018-12-09T06:05:54.711Z,69.63
2018-12-09T06:08:23.377Z,68.77
2018-12-09T06:10:51.715Z,69.53
2018-12-09T06:13:20.711Z,69.55
2018-12-09T06:15:49.364Z,69.09
2018-12-09T06:18:21.061Z,69.03
2018-12-09T06:20:50.355Z,69.61
2018-12-09T06:23:18.797Z,68.77
2018-12-09T06:25:47.551Z,68.88
2018-12-09T06:28:16.212Z,69.01
2018-12-09T06:30:44.727Z,68.06
2018-12-09T06:33:13.066Z,68.58
2018-12-09T06:35:52.110Z,68.35
2018-12-09T06:38:23.038Z,68.39
2018-12-09T06:40:53.069Z,68.19
2018-12-09T06:43:23.812Z,69.33
2018-12-09T06:45:54.072Z,69.92
2018-12-09T06:48:25.068Z,70.28
2018-12-09T06:50:58.841Z,69.82
2018-12-09T06:53:30.678Z,69.84
2018-12-09T06:56:01.861Z,69.26
2018-12-09T06:58:32.908Z,68.94
2018-12-09T07:01:03.510Z,68.57
2018-12-09T07:03:34.531Z,67.82
2018-12-09T07:06:05.714Z,67.27
2018-12-09T07:08:37.914Z,67.12
2018-12-09T07:11:07.942Z,67.62
2018-12-09T07:13:38.786Z,67.06
2018-12-09T07:16:08.866Z,67.41
2018-12-09T07:18:40.538Z,68.04
2018-12-09T07:21:13.063Z,68.17
2018-12-09T07:23:44.371Z,66.61
2018-12-09T07:26:15.939Z,67.42
2018-12-09T07:28:47.490Z,66.98
2018-12-09T07:31:19.161Z,67.06
2018-12-09T07:33:50.836Z,66.94
2018-12-09T07:36:21.720Z,66.74
2018-12-09T07:38:52.177Z,66.00
2018-12-09T07:41:23.708Z,66.10
2018-12-09T07:43:54.710Z,65.62
2018-12-09T07:46:28.150Z,66.02
2018-12-09T07:48:59.383Z,66.46
2018-12-09T07:51:30.450Z,66.51
2018-12-09T07:53:59.634Z,66.80
2018-12-09T07:56:28.783Z,66.71
2018-12-09T07:58:57.376Z,66.71
2018-12-09T08:01:25.627Z,66.32
2018-12-09T08:03:54.165Z,67.08
2018-12-09T08:06:22.739Z,66.54
2018-12-09T08:08:51.434Z,66.20
2018-12-09T08:11:19.782Z,66.89
2018-12-09T08:13:48.799Z,66.71
2018-12-09T08:16:17.402Z,66.81
2018-12-09T08:18:46.043Z,67.47
2018-12-09T08:21:14.553Z,66.85
2018-12-09T08:23:43.028Z,67.14
2018-12-09T08:26:12.071Z,67.80
2018-12-09T08:28:40.691Z,67.54
2018-12-09T08:31:09.350Z,66.37
2018-12-09T08:33:37.774Z,66.23
2018-12-09T08:36:06.081Z,66.25
2018-12-09T08:38:34.454Z,65.43
2018-12-09T08:41:03.751Z,64.68
2018-12-09T08:43:32.533Z,64.67
2018-12-09T08:46:00.999Z,65.02
2018-12-09T08:48:29.311Z,65.23
2018-12-09T08:50:57.955Z,65.47
2018-12-09T08:53:26.410Z,65.66
2018-12-09T08:55:55.130Z,66.70
2018-12-09T08:58:23.785Z,66.59
2018-12-09T09:00:52.406Z,66.74
2018-12-09T09:03:20.949Z,65.97
2018-12-09T09:05:49.285Z,65.57
2018-12-09T09:08:17.709Z,65.15
2018-12-09T09:10:46.077Z,66.10
2018-12-09T09:13:14.405Z,66.13
2018-12-09T09:15:43.039Z,64.95
2018-12-09T09:18:11.815Z,65.24
2018-12-09T09:20:40.767Z,66.25
2018-12-09T09:23:09.735Z,65.72
2018-12-09T09:25:38.067Z,66.59
2018-12-09T09:28:06.642Z,67.08
2018-12-09T09:30:35.162Z,67.94
2018-12-09T09:33:04.464Z,67.33
2018-12-09T09:35:33.351Z,68.60
2018-12-09T09:38:01.997Z,70.92
2018-12-09T09:40:30.213Z,71.63
2018-12-09T09:42:58.843Z,72.21
2018-12-09T09:45:28.510Z,72.55
2018-12-09T09:47:57.394Z,73.57
2018-12-09T09:50:25.964Z,73.61
2018-12-09T09:52:54.670Z,74.89
2018-12-09T09:55:23.805Z,74.11
2018-12-09T09:57:52.045Z,74.54
2018-12-09T10:00:20.595Z,75.45
2018-12-09T10:02:49.285Z,73.78
2018-12-09T10:05:19.421Z,74.48
2018-12-09T10:07:50.104Z,74.17
2018-12-09T10:10:18.743Z,74.49
2018-12-09T10:12:47.103Z,75.11
2018-12-09T10:15:15.607Z,73.71
2018-12-09T10:17:44.349Z,73.59
2018-12-09T10:20:14.602Z,73.14
2018-12-09T10:22:44.226Z,73.00
2018-12-09T10:25:12.554Z,73.25
2018-12-09T10:27:40.826Z,72.43
2018-12-09T10:30:09.353Z,73.70
2018-12-09T10:32:37.861Z,74.52
2018-12-09T10:35:06.213Z,75.02
2018-12-09T10:37:34.751Z,76.54
2018-12-09T10:40:03.139Z,77.20
2018-12-09T10:42:31.670Z,77.04
2018-12-09T10:44:59.897Z,76.80
2018-12-09T10:47:28.404Z,78.92
2018-12-09T10:49:56.653Z,78.25
2018-12-09T10:52:25.000Z,78.04
2018-12-09T10:54:53.454Z,78.74
2018-12-09T10:57:21.970Z,79.09
2018-12-09T10:59:50.522Z,78.10
2018-12-09T11:02:19.826Z,77.84
2018-12-09T11:04:48.376Z,79.17
2018-12-09T11:07:17.127Z,77.68
2018-12-09T11:09:45.368Z,78.00
2018-12-09T11:12:13.945Z,77.64
2018-12-09T11:14:42.495Z,78.59
2018-12-09T11:17:10.749Z,79.46
2018-12-09T11:19:39.282Z,78.40
2018-12-09T11:22:08.217Z,78.74
2018-12-09T11:24:36.588Z,78.51
2018-12-09T11:27:04.931Z,78.35
2018-12-09T11:29:33.108Z,78.07
2018-12-09T11:32:01.393Z,78.04
2018-12-09T11:34:29.778Z,77.60
2018-12-09T11:36:58.031Z,78.35
2018-12-09T11:39:26.828Z,78.85
2018-12-09T11:41:55.341Z,77.93
2018-12-09T11:44:25.429Z,77.91
2018-12-09T11:46:54.281Z,78.82
2018-12-09T11:49:23.074Z,78.23
2018-12-09T11:51:51.522Z,78.79
2018-12-09T11:54:20.006Z,78.56
2018-12-09T11:56:48.598Z,78.27
2018-12-09T11:59:17.438Z,78.99
2018-12-09T12:01:47.039Z,79.63
2018-12-09T12:04:15.310Z,79.55
2018-12-09T12:06:44.071Z,79.03
2018-12-09T12:09:19.258Z,79.40
2018-12-09T12:11:47.519Z,79.30
2018-12-09T12:14:16.396Z,79.18
2018-12-09T12:16:45.610Z,79.97
2018-12-09T12:19:14.119Z,79.22
2018-12-09T12:21:42.785Z,80.02
2018-12-09T12:24:11.471Z,78.76
2018-12-09T12:26:39.729Z,79.34
2018-12-09T12:29:08.334Z,78.44
2018-12-09T12:31:36.636Z,78.58
2018-12-09T12:34:04.906Z,79.53
2018-12-09T12:36:33.157Z,80.52
2018-12-09T12:39:01.734Z,80.44
2018-12-09T12:41:31.909Z,80.66
2018-12-09T12:44:00.843Z,80.37
2018-12-09T12:46:29.253Z,80.22
2018-12-09T12:49:04.213Z,79.91
2018-12-09T12:51:33.290Z,80.22
2018-12-09T12:54:01.585Z,79.60
2018-12-09T12:56:30.062Z,80.08
2018-12-09T12:58:58.833Z,80.47
2018-12-09T13:01:27.338Z,80.81
2018-12-09T13:04:02.777Z,81.58
2018-12-09T13:06:31.920Z,81.95
2018-12-09T13:09:01.436Z,82.50
2018-12-09T13:11:29.843Z,82.70
2018-12-09T13:13:58.150Z,83.31
2018-12-09T13:16:26.875Z,82.90
2018-12-09T13:18:55.184Z,83.57
2018-12-09T13:21:25.027Z,82.79
2018-12-09T13:23:53.270Z,81.77
2018-12-09T13:26:22.939Z,81.33
2018-12-09T13:28:51.463Z,82.33
2018-12-09T13:31:19.807Z,81.53
2018-12-09T13:33:48.654Z,80.76
2018-12-09T13:36:16.930Z,80.48
2018-12-09T13:38:45.802Z,80.90
2018-12-09T13:41:14.233Z,82.10
2018-12-09T13:43:42.486Z,81.47
2018-12-09T13:46:11.081Z,81.15
2018-12-09T13:48:40.488Z,79.92
2018-12-09T13:51:08.783Z,78.99
2018-12-09T13:53:38.429Z,79.71
2018-12-09T13:56:07.601Z,79.77
2018-12-09T13:58:36.265Z,79.41
2018-12-09T14:01:04.696Z,79.47
2018-12-09T14:03:33.311Z,80.13
2018-12-09T14:06:01.653Z,79.84
2018-12-09T14:08:31.667Z,80.44
2018-12-09T14:11:00.048Z,80.97
2018-12-09T14:13:28.845Z,82.00
2018-12-09T14:15:57.174Z,82.56
2018-12-09T14:18:25.438Z,82.27
2018-12-09T14:20:53.665Z,83.13
2018-12-09T14:23:22.359Z,82.42
2018-12-09T14:25:51.709Z,82.70
2018-12-09T14:28:20.648Z,82.74
2018-12-09T14:30:48.915Z,83.47
2018-12-09T14:33:17.275Z,83.65
2018-12-09T14:35:45.497Z,83.97
2018-12-09T14:38:13.830Z,83.02
2018-12-09T14:40:42.255Z,83.83
2018-12-09T14:43:10.895Z,84.35
2018-12-09T14:45:39.281Z,84.05
2018-12-09T14:48:07.622Z,84.20
2018-12-09T14:50:35.871Z,83.37
2018-12-09T14:53:04.129Z,84.33
2018-12-09T14:55:32.439Z,83.07
2018-12-09T14:58:01.201Z,83.81
2018-12-09T15:00:30.033Z,83.72
2018-12-09T15:02:58.713Z,83.66
2018-12-09T15:05:28.043Z,84.22
2018-12-09T15:07:56.381Z,83.75
2018-12-09T15:10:24.641Z,84.00
2018-12-09T15:12:52.960Z,84.06
2018-12-09T15:15:21.275Z,84.85
2018-12-09T15:17:49.769Z,85.16
2018-12-09T15:20:19.167Z,85.01
2018-12-09T15:22:47.536Z,85.18
2018-12-09T15:25:16.118Z,85.80
2018-12-09T15:27:44.484Z,85.55
2018-12-09T15:30:12.799Z,86.38
2018-12-09T15:32:41.392Z,86.27
2018-12-09T15:35:09.689Z,85.73
2018-12-09T15:37:37.938Z,85.83
2018-12-09T15:40:06.192Z,85.42
2018-12-09T15:42:35.657Z,85.70
2018-12-09T15:45:04.117Z,85.52
2018-12-09T15:47:32.646Z,84.55
2018-12-09T15:50:00.882Z,84.98
2018-12-09T15:52:29.153Z,84.53
2018-12-09T15:54:57.458Z,83.56
2018-12-09T15:57:26.866Z,83.40
2018-12-09T15:59:55.569Z,83.45
2018-12-09T16:02:24.254Z,83.68
2018-12-09T16:04:53.074Z,83.45
2018-12-09T16:07:21.904Z,83.42
2018-12-09T16:09:50.881Z,84.63
2018-12-09T16:12:19.467Z,84.57
2018-12-09T16:14:47.921Z,84.19
2018-12-09T16:17:16.294Z,83.84
2018-12-09T16:19:44.918Z,83.88
2018-12-09T16:22:13.546Z,84.44
2018-12-09T16:24:41.913Z,83.81
2018-12-09T16:27:10.650Z,83.45
2018-12-09T16:29:39.204Z,83.07
2018-12-09T16:32:07.446Z,83.24
2018-12-09T16:34:35.691Z,83.17
2018-12-09T16:37:03.951Z,82.87
2018-12-09T16:39:32.215Z,83.49
2018-12-09T16:42:00.892Z,82.70
2018-12-09T16:44:29.196Z,81.47
2018-12-09T16:46:57.443Z,81.73
2018-12-09T16:49:25.755Z,81.63
2018-12-09T16:51:53.974Z,82.39
2018-12-09T16:54:22.260Z,81.45
2018-12-09T16:56:50.929Z,81.24
2018-12-09T16:59:19.347Z,81.43
2018-12-09T17:01:47.948Z,80.53
2018-12-09T17:04:16.356Z,80.45
2018-12-09T17:06:44.709Z,79.75
2018-12-09T17:09:13.520Z,79.57
2018-12-09T17:11:41.993Z,80.16
2018-12-09T17:14:10.198Z,79.41
2018-12-09T17:16:38.979Z,79.54
2018-12-09T17:19:07.341Z,78.78
2018-12-09T17:21:36.383Z,79.82
2018-12-09T17:24:06.655Z,78.54
2018-12-09T17:26:35.450Z,79.26
2018-12-09T17:29:06.725Z,79.29
2018-12-09T17:31:34.936Z,80.09
2018-12-09T17:34:03.947Z,80.37
2018-12-09T17:36:32.286Z,80.80
2018-12-09T17:39:01.282Z,81.06
2018-12-09T17:41:29.684Z,81.20
2018-12-09T17:43:59.134Z,81.71
2018-12-09T17:46:27.750Z,81.87
2018-12-09T17:48:56.051Z,82.70
2018-12-09T17:51:25.597Z,81.93
2018-12-09T17:53:54.765Z,81.88
2018-12-09T17:56:23.503Z,82.37
2018-12-09T17:58:52.372Z,82.67
2018-12-09T18:01:21.158Z,82.55
2018-12-09T18:03:49.652Z,83.32
2018-12-09T18:06:18.191Z,83.22
2018-12-09T18:08:46.477Z,83.57
2018-12-09T18:11:15.011Z,82.93
2018-12-09T18:13:43.483Z,82.75
2018-12-09T18:16:11.916Z,81.71
2018-12-09T18:18:40.465Z,82.39
2018-12-09T18:21:08.866Z,82.52
2018-12-09T18:23:37.135Z,81.88
2018-12-09T18:26:05.690Z,82.65
2018-12-09T18:28:40.730Z,82.35
2018-12-09T18:31:09.055Z,82.35
2018-12-09T18:33:38.666Z,81.40
2018-12-09T18:36:07.279Z,80.98
2018-12-09T18:38:35.708Z,80.71
2018-12-09T18:41:04.301Z,80.59
2018-12-09T18:43:32.830Z,81.41
2018-12-09T18:46:08.439Z,80.46
2018-12-09T18:48:38.141Z,81.78
2018-12-09T18:51:07.036Z,81.96
2018-12-09T18:53:35.266Z,81.43
2018-12-09T18:56:03.671Z,80.94
2018-12-09T18:58:31.943Z,81.34
2018-12-09T19:01:00.854Z,80.70
2018-12-09T19:03:29.192Z,80.63
2018-12-09T19:05:57.873Z,81.21
2018-12-09T19:08:26.835Z,80.99
2018-12-09T19:10:55.833Z,80.68
2018-12-09T19:13:24.064Z,82.15
2018-12-09T19:15:52.406Z,82.09
2018-12-09T19:18:20.872Z,81.62
2018-12-09T19:20:49.613Z,81.14
2018-12-09T19:23:17.946Z,81.43
2018-12-09T19:25:46.795Z,80.33
2018-12-09T19:28:15.047Z,80.72
2018-12-09T19:30:48.168Z,81.04
2018-12-09T19:33:13.669Z,81.08
2018-12-09T19:35:42.439Z,81.29
2018-12-09T19:38:10.759Z,81.58
2018-12-09T19:40:39.413Z,82.06
2018-12-09T19:43:07.758Z,82.37
2018-12-09T19:45:36.233Z,82.17
2018-12-09T19:48:04.548Z,81.12
2018-12-09T19:50:32.882Z,81.39
2018-12-09T19:53:01.453Z,81.52
2018-12-09T19:55:29.774Z,82.72
2018-12-09T19:57:58.128Z,82.02
2018-12-09T20:00:26.423Z,80.39
2018-12-09T20:02:54.618Z,79.95
2018-12-09T20:05:23.198Z,79.58
2018-12-09T20:07:51.821Z,78.64
2018-12-09T20:10:20.450Z,79.60
2018-12-09T20:12:49.146Z,78.44
2018-12-09T20:15:18.179Z,78.25
2018-12-09T20:17:46.760Z,78.23
2018-12-09T20:20:15.120Z,78.60
2018-12-09T20:22:43.416Z,79.31
2018-12-09T20:25:11.929Z,78.88
2018-12-09T20:27:40.563Z,78.26
2018-12-09T20:30:10.249Z,78.45
2018-12-09T20:32:38.589Z,77.79
2018-12-09T20:35:06.926Z,78.43
2018-12-09T20:37:35.530Z,78.10
2018-12-09T20:40:04.379Z,78.03
2018-12-09T20:42:32.701Z,78.56
2018-12-09T20:45:01.703Z,78.56
2018-12-09T20:47:30.545Z,77.62
2018-12-09T20:49:58.800Z,77.80
2018-12-09T20:52:27.085Z,77.48
2018-12-09T20:54:55.888Z,77.67
2018-12-09T20:57:24.153Z,77.17
2018-12-09T20:59:53.675Z,77.18
2018-12-09T21:02:22.067Z,77.07
2018-12-09T21:04:50.659Z,78.86
2018-12-09T21:07:19.428Z,78.83
2018-12-09T21:09:48.074Z,79.29
2018-12-09T21:12:17.605Z,80.37
2018-12-09T21:14:49.025Z,80.24
2018-12-09T21:17:17.451Z,79.91
2018-12-09T21:19:46.255Z,79.81
2018-12-09T21:22:14.781Z,79.97
2018-12-09T21:24:43.384Z,80.33
2018-12-09T21:27:11.766Z,79.83
2018-12-09T21:29:40.108Z,79.53
2018-12-09T21:32:08.341Z,78.86
2018-12-09T21:34:36.654Z,79.06
2018-12-09T21:37:05.493Z,79.11
2018-12-09T21:39:34.886Z,79.29
2018-12-09T21:42:03.170Z,79.29
2018-12-09T21:44:31.770Z,77.96
2018-12-09T21:47:00.714Z,78.17
2018-12-09T21:49:29.281Z,78.32
2018-12-09T21:51:57.604Z,78.04
2018-12-09T21:54:25.870Z,78.03
2018-12-09T21:56:54.190Z,77.99
2018-12-09T21:59:22.435Z,77.69
2018-12-09T22:01:50.922Z,78.04
2018-12-09T22:04:19.245Z,77.70
2018-12-09T22:06:48.185Z,77.62
2018-12-09T22:09:16.795Z,78.11
2018-12-09T22:11:45.248Z,78.05
2018-12-09T22:14:13.776Z,78.24
2018-12-09T22:16:42.054Z,77.98
2018-12-09T22:19:10.321Z,77.96
2018-12-09T22:21:38.657Z,77.60
2018-12-09T22:24:06.917Z,77.90
2018-12-09T22:26:36.379Z,78.11
2018-12-09T22:29:04.626Z,77.90
2018-12-09T22:31:32.881Z,77.64
2018-12-09T22:34:01.364Z,78.45
2018-12-09T22:36:30.814Z,77.73
2018-12-09T22:38:59.025Z,77.26
2018-12-09T22:41:27.828Z,77.38
2018-12-09T22:43:56.336Z,77.46
2018-12-09T22:46:24.867Z,76.89
2018-12-09T22:48:53.168Z,76.77
2018-12-09T22:51:21.712Z,75.57
2018-12-09T22:53:50.743Z,77.37
2018-12-09T22:56:19.280Z,76.15
2018-12-09T22:58:48.077Z,75.77
2018-12-09T23:01:21.034Z,75.85
2018-12-09T23:03:49.822Z,77.07
2018-12-09T23:06:18.219Z,75.31
2018-12-09T23:08:46.429Z,75.11
2018-12-09T23:11:15.081Z,75.58
2018-12-09T23:13:43.362Z,75.42
2018-12-09T23:16:11.893Z,75.10
2018-12-09T23:18:40.343Z,74.59
2018-12-09T23:21:09.074Z,73.61
2018-12-09T23:23:37.333Z,74.01
2018-12-09T23:26:07.018Z,73.99
2018-12-09T23:28:35.342Z,73.98
2018-12-09T23:31:04.263Z,75.14
2018-12-09T23:33:32.566Z,74.50
2018-12-09T23:36:00.792Z,74.20
2018-12-09T23:38:29.065Z,74.09
2018-12-09T23:40:57.601Z,73.53
2018-12-09T23:43:26.142Z,73.67
2018-12-09T23:45:54.580Z,73.69
2018-12-09T23:48:23.175Z,74.08
2018-12-09T23:50:51.968Z,74.53
2018-12-09T23:53:20.274Z,74.47
2018-12-09T23:55:48.673Z,73.89
2018-12-09T23:58:17.339Z,74.02
